Time;durP1;ratioP1;P1;durP2;ratioP2;P2;SDS_P1;SDS_P2;PMS_P1;PMS_P2;Temp;Humidity;BMP_temperature;BMP_pressure;BME280_temperature;BME280_humidity;BME280_pressure;Samples;Min_cycle;Max_cycle;Signal;HPM_P1;HPM_P2
2022/12/19 00:00:05;;;;;;;40.73;19.63;;;;;;;;;;5050941;28;20214;-81
2022/12/19 00:02:32;;;;;;;34.57;19.30;;;;;;;;;;5053043;28;20600;-81
2022/12/19 00:04:59;;;;;;;37.93;19.20;;;;;;;;;;5058082;28;20202;-81
2022/12/19 00:07:27;;;;;;;41.63;20.77;;;;;;;;;;5057792;28;20244;-81
2022/12/19 00:09:55;;;;;;;38.33;19.43;;;;;;;;;;5063166;28;20255;-81
2022/12/19 00:12:24;;;;;;;36.13;19.23;;;;;;;;;;5058354;28;20233;-81
2022/12/19 00:14:51;;;;;;;35.43;18.23;;;;;;;;;;5058350;28;20201;-82
2022/12/19 00:17:18;;;;;;;38.13;19.87;;;;;;;;;;5057280;28;20237;-81
2022/12/19 00:19:45;;;;;;;39.30;21.20;;;;;;;;;;5058023;28;20201;-81
2022/12/19 00:22:12;;;;;;;34.90;19.30;;;;;;;;;;5057655;28;20233;-82
2022/12/19 00:24:39;;;;;;;36.33;19.40;;;;;;;;;;5058108;28;20202;-82
2022/12/19 00:27:08;;;;;;;46.07;20.67;;;;;;;;;;5057350;28;20246;-81
2022/12/19 00:29:35;;;;;;;39.97;19.33;;;;;;;;;;5057965;28;20803;-81
2022/12/19 00:32:02;;;;;;;37.67;19.00;;;;;;;;;;5057337;28;20229;-82
2022/12/19 00:34:29;;;;;;;38.23;20.70;;;;;;;;;;5057808;28;20205;-82
2022/12/19 00:36:56;;;;;;;40.10;19.53;;;;;;;;;;5057457;28;20226;-82
2022/12/19 00:39:23;;;;;;;39.70;21.13;;;;;;;;;;5057837;28;20206;-82
2022/12/19 00:41:50;;;;;;;37.83;18.47;;;;;;;;;;5057464;28;20233;-82
2022/12/19 00:44:18;;;;;;;34.80;18.50;;;;;;;;;;5057978;28;20222;-81
2022/12/19 00:46:45;;;;;;;42.50;20.80;;;;;;;;;;5057208;28;20605;-82
2022/12/19 00:49:13;;;;;;;37.33;19.57;;;;;;;;;;5057613;28;20217;-81
2022/12/19 00:51:40;;;;;;;38.77;20.57;;;;;;;;;;5057330;28;20230;-82
2022/12/19 00:54:07;;;;;;;42.10;21.53;;;;;;;;;;5057862;28;20208;-81
2022/12/19 00:56:35;;;;;;;40.90;18.27;;;;;;;;;;5056781;28;20245;-81
2022/12/19 00:59:02;;;;;;;46.03;20.63;;;;;;;;;;5057280;28;20677;-81
2022/12/19 01:01:33;;;;;;;40.47;19.97;;;;;;;;;;5057048;28;20709;-81
2022/12/19 01:04:00;;;;;;;39.00;20.73;;;;;;;;;;5058085;28;20190;-81
2022/12/19 01:06:28;;;;;;;43.10;20.57;;;;;;;;;;5057061;28;20635;-81
2022/12/19 01:08:55;;;;;;;40.90;20.20;;;;;;;;;;5057299;28;20198;-81
2022/12/19 01:12:44;;;;;;;35.37;18.60;;;;;;;;;;5056942;28;20237;-81
2022/12/19 01:14:08;;;;;;;38.63;19.83;;;;;;;;;;5055982;28;20730;-82
2022/12/19 01:16:37;;;;;;;41.37;19.83;;;;;;;;;;5053264;28;20253;-82
2022/12/19 01:19:04;;;;;;;38.43;19.33;;;;;;;;;;5054333;28;20255;-81
2022/12/19 01:21:31;;;;;;;38.37;19.37;;;;;;;;;;5053766;28;20238;-81
2022/12/19 01:23:58;;;;;;;39.00;19.43;;;;;;;;;;5054349;28;20194;-81
2022/12/19 01:26:25;;;;;;;42.07;19.23;;;;;;;;;;5053592;28;20230;-82
2022/12/19 01:28:52;;;;;;;40.53;20.53;;;;;;;;;;5053670;28;20197;-82
2022/12/19 01:31:19;;;;;;;34.57;18.97;;;;;;;;;;5053750;28;20241;-82
2022/12/19 01:33:47;;;;;;;35.90;18.73;;;;;;;;;;5054038;28;20216;-81
2022/12/19 01:36:14;;;;;;;37.67;18.83;;;;;;;;;;5053718;28;20238;-81
2022/12/19 01:38:42;;;;;;;33.27;17.77;;;;;;;;;;5053848;28;20248;-82
2022/12/19 01:41:09;;;;;;;37.13;19.57;;;;;;;;;;5053470;28;20605;-82
2022/12/19 01:43:51;;;;;;;35.23;18.10;;;;;;;;;;5053955;28;20194;-82
2022/12/19 01:46:18;;;;;;;41.87;20.80;;;;;;;;;;5052845;28;20237;-82
2022/12/19 01:48:45;;;;;;;37.30;18.97;;;;;;;;;;5053666;28;20202;-81
2022/12/19 01:51:17;;;;;;;36.00;19.00;;;;;;;;;;5053203;28;20721;-81
2022/12/19 01:53:45;;;;;;;36.27;18.77;;;;;;;;;;5053557;28;20214;-82
2022/12/19 01:56:12;;;;;;;37.97;19.07;;;;;;;;;;5053212;28;20244;-81
2022/12/19 01:58:42;;;;;;;38.03;19.13;;;;;;;;;;5053000;28;20233;-81
2022/12/19 02:01:09;;;;;;;37.00;19.77;;;;;;;;;;5052832;28;20602;-81
2022/12/19 02:03:37;;;;;;;36.13;18.83;;;;;;;;;;5052659;28;20220;-81
2022/12/19 02:06:06;;;;;;;39.27;19.43;;;;;;;;;;5068070;28;20237;-81
2022/12/19 02:08:35;;;;;;;34.90;19.83;;;;;;;;;;5050651;28;20216;-82
2022/12/19 02:11:02;;;;;;;43.57;20.23;;;;;;;;;;5069280;28;20252;-82
2022/12/19 02:13:29;;;;;;;40.93;21.63;;;;;;;;;;5073579;28;20205;-82
2022/12/19 02:16:01;;;;;;;41.60;20.87;;;;;;;;;;5072923;28;20248;-82
2022/12/19 02:18:35;;;;;;;37.17;19.47;;;;;;;;;;5072819;28;20213;-81
2022/12/19 02:21:19;;;;;;;35.47;19.10;;;;;;;;;;5072827;28;20233;-82
2022/12/19 02:24:08;;;;;;;39.53;19.43;;;;;;;;;;5073165;28;20212;-82
2022/12/19 02:26:48;;;;;;;37.73;18.63;;;;;;;;;;5072343;28;20237;-81
2022/12/19 02:29:25;;;;;;;36.63;18.57;;;;;;;;;;5053584;28;20240;-81
2022/12/19 02:31:56;;;;;;;37.17;18.53;;;;;;;;;;5052436;28;20229;-82
2022/12/19 02:34:26;;;;;;;35.33;19.67;;;;;;;;;;5052859;28;20551;-81
2022/12/19 02:36:54;;;;;;;36.03;18.90;;;;;;;;;;5052489;28;20237;-82
2022/12/19 02:39:26;;;;;;;36.87;20.63;;;;;;;;;;5052706;28;20233;-82
2022/12/19 02:41:55;;;;;;;41.03;20.60;;;;;;;;;;5052380;28;20252;-82
2022/12/19 02:44:26;;;;;;;35.57;18.90;;;;;;;;;;5052727;28;20670;-82
2022/12/19 02:46:54;;;;;;;34.00;17.80;;;;;;;;;;5051916;28;20721;-82
2022/12/19 02:49:21;;;;;;;44.00;20.00;;;;;;;;;;5051845;28;20194;-82
2022/12/19 02:51:48;;;;;;;37.57;18.93;;;;;;;;;;5051922;28;20237;-82
2022/12/19 02:54:16;;;;;;;37.23;18.53;;;;;;;;;;5052483;28;20217;-82
2022/12/19 02:56:48;;;;;;;38.73;19.90;;;;;;;;;;5051771;28;20610;-82
2022/12/19 02:59:19;;;;;;;33.03;18.87;;;;;;;;;;5051904;28;20214;-82
2022/12/19 03:01:48;;;;;;;36.23;19.50;;;;;;;;;;5051681;28;20233;-82
2022/12/19 03:04:20;;;;;;;38.53;19.47;;;;;;;;;;5052711;28;20650;-82
2022/12/19 03:06:49;;;;;;;36.77;17.10;;;;;;;;;;5051721;28;20264;-82
2022/12/19 03:09:20;;;;;;;37.43;19.43;;;;;;;;;;5051583;28;20201;-82
2022/12/19 03:11:48;;;;;;;38.33;18.20;;;;;;;;;;5051660;28;20571;-82
2022/12/19 03:14:17;;;;;;;39.90;20.60;;;;;;;;;;5052089;28;20203;-82
2022/12/19 03:16:45;;;;;;;40.77;19.27;;;;;;;;;;5052109;28;20603;-80
2022/12/19 03:19:13;;;;;;;29.70;17.17;;;;;;;;;;5051604;28;20590;-80
2022/12/19 03:21:43;;;;;;;34.77;18.43;;;;;;;;;;5051661;28;20240;-80
2022/12/19 03:24:11;;;;;;;41.67;19.47;;;;;;;;;;5052535;28;20199;-80
2022/12/19 03:26:39;;;;;;;37.17;18.87;;;;;;;;;;5054241;28;20687;-80
2022/12/19 03:29:09;;;;;;;37.77;18.13;;;;;;;;;;5051720;28;20198;-80
2022/12/19 03:31:37;;;;;;;35.00;16.40;;;;;;;;;;5051134;28;20221;-80
2022/12/19 03:34:07;;;;;;;36.17;18.67;;;;;;;;;;5052003;28;20202;-80
2022/12/19 03:36:36;;;;;;;42.27;20.83;;;;;;;;;;5051099;28;20236;-80
2022/12/19 03:39:06;;;;;;;35.73;20.20;;;;;;;;;;5050812;28;20249;-80
2022/12/19 03:44:21;;;;;;;41.73;21.90;;;;;;;;;;5051676;28;20205;-80
2022/12/19 03:46:52;;;;;;;44.43;20.87;;;;;;;;;;5051081;28;20239;-79
2022/12/19 03:49:19;;;;;;;41.93;20.63;;;;;;;;;;5051512;28;20191;-80
2022/12/19 03:51:48;;;;;;;37.17;20.10;;;;;;;;;;5051148;28;20234;-80
2022/12/19 03:54:18;;;;;;;38.50;19.40;;;;;;;;;;5051305;28;20206;-80
2022/12/19 03:56:47;;;;;;;42.10;19.63;;;;;;;;;;5051114;28;20231;-79
2022/12/19 03:59:17;;;;;;;42.47;21.00;;;;;;;;;;5050854;28;20705;-79
2022/12/19 04:01:44;;;;;;;39.47;20.57;;;;;;;;;;5050673;28;20725;-80
2022/12/19 04:04:13;;;;;;;44.70;21.53;;;;;;;;;;5051182;28;20682;-80
2022/12/19 04:06:41;;;;;;;37.27;21.10;;;;;;;;;;5050661;28;20244;-80
2022/12/19 04:09:08;;;;;;;40.70;20.27;;;;;;;;;;5051499;28;20210;-80
2022/12/19 04:11:39;;;;;;;39.47;20.90;;;;;;;;;;5051003;28;20242;-80
2022/12/19 04:14:08;;;;;;;42.23;20.47;;;;;;;;;;5051517;28;20183;-80
2022/12/19 04:16:39;;;;;;;44.37;20.97;;;;;;;;;;5050716;28;20248;-80
2022/12/19 04:19:11;;;;;;;37.97;19.47;;;;;;;;;;5051229;28;20254;-80
2022/12/19 04:21:41;;;;;;;36.37;18.77;;;;;;;;;;5049681;28;20234;-80
2022/12/19 04:24:11;;;;;;;38.07;20.67;;;;;;;;;;5051840;28;20218;-79
2022/12/19 04:26:43;;;;;;;38.57;19.73;;;;;;;;;;5050582;28;20241;-79
2022/12/19 04:29:12;;;;;;;40.07;20.57;;;;;;;;;;5050589;28;20209;-80
2022/12/19 04:31:39;;;;;;;47.60;21.77;;;;;;;;;;5050406;28;20229;-80
2022/12/19 04:34:07;;;;;;;43.20;22.77;;;;;;;;;;5050949;28;20199;-80
2022/12/19 04:36:34;;;;;;;43.13;20.63;;;;;;;;;;5050722;28;20238;-80
2022/12/19 04:39:01;;;;;;;36.57;19.40;;;;;;;;;;5050961;28;20246;-80
2022/12/19 04:41:28;;;;;;;45.00;21.73;;;;;;;;;;5050621;28;20714;-81
2022/12/19 04:43:56;;;;;;;42.93;21.47;;;;;;;;;;5051252;28;20583;-80
2022/12/19 04:46:23;;;;;;;46.30;22.27;;;;;;;;;;5050486;28;20249;-80
2022/12/19 04:48:50;;;;;;;41.40;21.37;;;;;;;;;;5050942;28;20205;-80
2022/12/19 04:51:17;;;;;;;41.87;21.37;;;;;;;;;;5053257;28;20230;-80
2022/12/19 04:53:44;;;;;;;46.63;21.27;;;;;;;;;;5054759;28;20207;-80
2022/12/19 04:56:11;;;;;;;44.20;21.27;;;;;;;;;;5054056;28;20246;-81
2022/12/19 04:58:39;;;;;;;40.80;21.40;;;;;;;;;;5054175;28;20229;-80
2022/12/19 05:01:08;;;;;;;45.47;22.67;;;;;;;;;;5053639;28;20723;-80
2022/12/19 05:03:36;;;;;;;47.00;21.63;;;;;;;;;;5054604;28;20211;-80
2022/12/19 05:06:03;;;;;;;43.47;20.13;;;;;;;;;;5053620;28;20233;-81
2022/12/19 05:08:30;;;;;;;37.20;19.43;;;;;;;;;;5054355;28;20256;-80
2022/12/19 05:10:59;;;;;;;36.60;18.63;;;;;;;;;;5054092;28;20235;-80
2022/12/19 05:13:26;;;;;;;43.77;20.93;;;;;;;;;;5054316;28;20212;-80
2022/12/19 05:15:56;;;;;;;43.67;20.70;;;;;;;;;;5053391;28;20250;-80
2022/12/19 05:18:25;;;;;;;46.80;21.93;;;;;;;;;;5036958;28;20313;-79
2022/12/19 05:20:52;;;;;;;47.53;20.57;;;;;;;;;;5053999;28;20285;-80
2022/12/19 05:23:19;;;;;;;41.83;20.37;;;;;;;;;;5053841;28;20202;-79
2022/12/19 05:25:46;;;;;;;46.20;20.87;;;;;;;;;;5053773;28;20240;-78
2022/12/19 05:28:14;;;;;;;42.27;20.30;;;;;;;;;;5053910;28;20195;-78
2022/12/19 05:30:41;;;;;;;46.70;22.73;;;;;;;;;;5053397;28;20231;-78
2022/12/19 05:33:08;;;;;;;45.87;20.77;;;;;;;;;;5053942;28;20214;-78
2022/12/19 05:35:37;;;;;;;42.17;18.90;;;;;;;;;;5054174;28;20237;-78
2022/12/19 05:38:04;;;;;;;48.90;22.10;;;;;;;;;;5054854;28;20293;-78
2022/12/19 05:40:31;;;;;;;46.33;22.10;;;;;;;;;;5071524;28;20218;-78
2022/12/19 05:42:58;;;;;;;46.63;21.50;;;;;;;;;;5049665;28;20203;-78
2022/12/19 05:45:26;;;;;;;43.10;20.70;;;;;;;;;;5049656;28;20242;-78
2022/12/19 05:47:53;;;;;;;45.63;22.47;;;;;;;;;;5054370;28;20218;-78
2022/12/19 05:50:20;;;;;;;46.07;21.27;;;;;;;;;;5054198;28;20214;-78
2022/12/19 05:52:48;;;;;;;45.27;21.97;;;;;;;;;;5053903;28;20207;-78
2022/12/19 05:55:16;;;;;;;47.40;22.17;;;;;;;;;;5053492;28;20212;-78
2022/12/19 05:57:43;;;;;;;44.90;21.23;;;;;;;;;;5053844;28;20691;-78
2022/12/19 06:00:11;;;;;;;43.60;20.47;;;;;;;;;;5053463;28;20246;-78
2022/12/19 06:02:38;;;;;;;41.43;21.00;;;;;;;;;;5053447;28;20200;-78
2022/12/19 06:05:05;;;;;;;42.43;22.80;;;;;;;;;;5053030;28;20198;-79
2022/12/19 06:07:32;;;;;;;46.23;21.57;;;;;;;;;;5053736;28;20243;-78
2022/12/19 06:10:01;;;;;;;40.43;21.33;;;;;;;;;;5053964;28;20203;-79
2022/12/19 06:12:28;;;;;;;44.47;20.97;;;;;;;;;;5073149;28;20238;-77
2022/12/19 06:14:55;;;;;;;42.60;20.77;;;;;;;;;;5073708;28;20689;-78
2022/12/19 06:17:22;;;;;;;44.40;20.43;;;;;;;;;;5072513;28;20268;-78
2022/12/19 06:19:49;;;;;;;41.13;20.23;;;;;;;;;;5073292;28;20237;-77
2022/12/19 06:22:16;;;;;;;44.47;22.60;;;;;;;;;;5072775;28;20234;-77
2022/12/19 06:24:44;;;;;;;44.27;21.57;;;;;;;;;;5075475;28;20209;-78
2022/12/19 06:27:12;;;;;;;45.87;20.23;;;;;;;;;;5076550;28;20241;-78
2022/12/19 06:29:39;;;;;;;40.37;21.17;;;;;;;;;;5072594;28;20222;-78
2022/12/19 06:32:06;;;;;;;42.67;20.90;;;;;;;;;;5072247;28;20235;-78
2022/12/19 06:34:33;;;;;;;41.37;20.83;;;;;;;;;;5072359;28;20209;-77
2022/12/19 06:37:00;;;;;;;38.27;21.53;;;;;;;;;;5072111;28;20853;-78
2022/12/19 06:39:28;;;;;;;38.00;19.63;;;;;;;;;;5072349;28;20227;-78
2022/12/19 06:44:42;;;;;;;44.63;21.20;;;;;;;;;;5066283;28;20214;-78
2022/12/19 06:47:09;;;;;;;42.00;21.10;;;;;;;;;;5070831;28;20664;-77
2022/12/19 06:49:36;;;;;;;46.47;21.43;;;;;;;;;;5072018;28;20214;-77
2022/12/19 06:52:03;;;;;;;37.27;20.20;;;;;;;;;;5071670;28;20233;-78
2022/12/19 06:54:30;;;;;;;45.03;20.60;;;;;;;;;;5072515;28;20212;-78
2022/12/19 06:56:57;;;;;;;48.43;22.93;;;;;;;;;;5071486;28;20232;-78
2022/12/19 06:59:25;;;;;;;41.20;20.77;;;;;;;;;;5071891;28;20228;-78
2022/12/19 07:01:57;;;;;;;41.43;21.13;;;;;;;;;;5071716;28;20232;-78
2022/12/19 07:04:27;;;;;;;42.87;21.07;;;;;;;;;;5052106;28;20216;-78
2022/12/19 07:06:55;;;;;;;44.00;21.07;;;;;;;;;;5070544;28;20240;-78
2022/12/19 07:09:22;;;;;;;45.80;22.10;;;;;;;;;;5073947;28;20282;-78
2022/12/19 07:11:49;;;;;;;49.97;22.50;;;;;;;;;;5072935;28;20258;-78
2022/12/19 07:14:16;;;;;;;42.77;20.93;;;;;;;;;;5072607;28;20209;-78
2022/12/19 07:16:43;;;;;;;46.10;19.57;;;;;;;;;;5071771;28;20608;-78
2022/12/19 07:19:12;;;;;;;50.40;25.03;;;;;;;;;;5071929;28;20245;-79
2022/12/19 07:21:39;;;;;;;55.53;24.93;;;;;;;;;;5071218;28;20688;-79
2022/12/19 07:24:07;;;;;;;51.93;22.53;;;;;;;;;;5071540;28;20673;-78
2022/12/19 07:26:34;;;;;;;54.07;24.40;;;;;;;;;;5071658;28;20506;-78
2022/12/19 07:29:02;;;;;;;51.00;22.43;;;;;;;;;;5074486;28;20246;-76
2022/12/19 07:31:29;;;;;;;51.17;23.80;;;;;;;;;;5065547;28;20243;-77
2022/12/19 07:33:56;;;;;;;47.33;22.37;;;;;;;;;;5072726;28;20212;-77
2022/12/19 07:36:25;;;;;;;49.60;23.47;;;;;;;;;;5070635;28;20243;-76
2022/12/19 07:38:52;;;;;;;48.00;21.83;;;;;;;;;;5069991;28;20211;-76
2022/12/19 07:41:19;;;;;;;44.63;22.93;;;;;;;;;;5071278;28;20242;-77
2022/12/19 07:43:46;;;;;;;54.27;22.90;;;;;;;;;;5071637;28;20211;-77
2022/12/19 07:46:13;;;;;;;48.57;23.30;;;;;;;;;;5070928;28;20617;-77
2022/12/19 07:48:40;;;;;;;45.70;22.17;;;;;;;;;;5071251;28;20208;-77
2022/12/19 07:51:07;;;;;;;46.33;23.77;;;;;;;;;;5070887;28;20235;-78
2022/12/19 07:53:36;;;;;;;45.07;23.63;;;;;;;;;;5071381;28;20200;-78
2022/12/19 07:56:03;;;;;;;57.47;30.83;;;;;;;;;;5070874;28;20241;-78
2022/12/19 07:58:30;;;;;;;56.63;25.67;;;;;;;;;;5070658;28;20201;-79
2022/12/19 08:00:59;;;;;;;50.30;24.30;;;;;;;;;;5070092;28;20232;-79
2022/12/19 08:03:27;;;;;;;54.57;24.97;;;;;;;;;;5070462;28;20211;-79
2022/12/19 08:05:54;;;;;;;50.33;24.87;;;;;;;;;;5070481;28;20715;-78
2022/12/19 08:08:21;;;;;;;58.90;25.97;;;;;;;;;;5070517;28;20827;-79
2022/12/19 08:10:49;;;;;;;60.37;26.23;;;;;;;;;;5071114;28;20668;-80
2022/12/19 08:13:17;;;;;;;54.07;26.80;;;;;;;;;;5071300;28;20198;-80
2022/12/19 08:15:44;;;;;;;56.77;25.13;;;;;;;;;;5070580;28;20236;-80
2022/12/19 08:18:11;;;;;;;63.43;26.73;;;;;;;;;;5066899;28;20200;-80
2022/12/19 08:20:38;;;;;;;56.13;27.43;;;;;;;;;;5054636;28;20240;-80
2022/12/19 08:23:05;;;;;;;58.63;26.00;;;;;;;;;;5071106;28;20204;-79
2022/12/19 08:25:33;;;;;;;56.77;24.17;;;;;;;;;;5074123;27;20242;-79
2022/12/19 08:28:02;;;;;;;52.53;25.67;;;;;;;;;;5075273;28;20201;-78
2022/12/19 08:30:29;;;;;;;51.40;23.87;;;;;;;;;;5074458;28;20255;-80
2022/12/19 08:32:56;;;;;;;50.30;24.83;;;;;;;;;;5074907;28;20204;-79
2022/12/19 08:35:23;;;;;;;51.33;24.57;;;;;;;;;;5074821;28;20231;-79
2022/12/19 08:37:50;;;;;;;57.17;24.27;;;;;;;;;;5075138;28;20303;-78
2022/12/19 08:40:18;;;;;;;60.50;24.80;;;;;;;;;;5074259;28;20249;-78
2022/12/19 08:42:45;;;;;;;53.03;25.20;;;;;;;;;;5075517;28;20206;-80
2022/12/19 08:45:13;;;;;;;54.27;24.90;;;;;;;;;;5075126;28;20215;-80
2022/12/19 08:47:40;;;;;;;54.13;24.73;;;;;;;;;;5074789;28;20704;-80
2022/12/19 08:50:08;;;;;;;50.73;23.27;;;;;;;;;;5074596;28;20193;-80
2022/12/19 08:52:35;;;;;;;51.67;23.83;;;;;;;;;;5075299;28;20721;-79
2022/12/19 08:55:03;;;;;;;75.87;41.70;;;;;;;;;;5075047;28;20200;-80
2022/12/19 08:57:30;;;;;;;58.10;26.93;;;;;;;;;;5074969;28;20324;-80
2022/12/19 08:59:57;;;;;;;54.07;26.30;;;;;;;;;;5074647;28;20233;-78
2022/12/19 09:02:26;;;;;;;54.67;24.87;;;;;;;;;;5072623;28;20232;-79
2022/12/19 09:04:53;;;;;;;59.47;26.93;;;;;;;;;;5074672;28;20231;-79
2022/12/19 09:07:20;;;;;;;58.43;25.73;;;;;;;;;;5073411;28;20717;-79
2022/12/19 09:09:47;;;;;;;60.23;25.97;;;;;;;;;;5074049;28;20680;-79
2022/12/19 09:12:15;;;;;;;56.73;24.87;;;;;;;;;;5073458;28;20938;-79
2022/12/19 09:14:43;;;;;;;52.83;24.77;;;;;;;;;;5073666;28;20232;-79
2022/12/19 09:17:10;;;;;;;56.43;24.97;;;;;;;;;;5089203;22;20245;-79
2022/12/19 09:19:39;;;;;;;54.47;26.83;;;;;;;;;;5059032;28;20235;-79
2022/12/19 09:22:06;;;;;;;53.43;26.47;;;;;;;;;;5028513;28;20229;-78
2022/12/19 09:24:33;;;;;;;53.20;27.30;;;;;;;;;;5033379;28;20199;-78
2022/12/19 09:27:00;;;;;;;59.10;26.23;;;;;;;;;;5033521;28;20257;-80
2022/12/19 09:29:28;;;;;;;52.03;25.17;;;;;;;;;;5032019;28;20214;-79
2022/12/19 09:31:55;;;;;;;51.97;26.00;;;;;;;;;;5013897;28;20663;-79
2022/12/19 09:34:22;;;;;;;56.00;26.13;;;;;;;;;;5014629;28;20199;-79
2022/12/19 09:36:50;;;;;;;56.93;26.87;;;;;;;;;;5012557;28;20238;-79
2022/12/19 09:39:17;;;;;;;52.30;25.90;;;;;;;;;;5013960;28;20210;-82
2022/12/19 09:42:03;;;;;;;61.10;26.53;;;;;;;;;;5014354;28;20329;-79
2022/12/19 09:44:38;;;;;;;58.17;24.30;;;;;;;;;;5032798;28;20730;-79
2022/12/19 09:47:05;;;;;;;54.43;25.43;;;;;;;;;;5033419;28;20243;-77
2022/12/19 09:49:35;;;;;;;48.97;24.33;;;;;;;;;;5033524;28;20650;-80
2022/12/19 09:52:06;;;;;;;52.47;24.87;;;;;;;;;;5033179;28;20240;-79
2022/12/19 09:54:36;;;;;;;54.43;25.03;;;;;;;;;;5032981;28;20235;-78
2022/12/19 09:57:04;;;;;;;48.13;24.07;;;;;;;;;;5032604;28;20237;-79
2022/12/19 09:59:34;;;;;;;46.37;24.03;;;;;;;;;;5032983;28;20210;-79
2022/12/19 10:02:04;;;;;;;48.87;23.57;;;;;;;;;;5033395;28;20241;-79
2022/12/19 10:04:33;;;;;;;49.27;25.90;;;;;;;;;;5033799;28;20218;-79
2022/12/19 10:07:00;;;;;;;50.70;25.40;;;;;;;;;;5033442;28;20239;-78
2022/12/19 10:09:33;;;;;;;50.53;24.33;;;;;;;;;;5032532;28;20681;-78
2022/12/19 10:12:12;;;;;;;44.27;24.50;;;;;;;;;;5030607;28;20286;-79
2022/12/19 10:14:44;;;;;;;50.13;24.00;;;;;;;;;;5033652;28;20217;-80
2022/12/19 10:17:20;;;;;;;49.10;25.07;;;;;;;;;;5026351;28;20246;-80
2022/12/19 10:19:54;;;;;;;45.90;22.90;;;;;;;;;;5020181;28;20223;-80
2022/12/19 10:22:25;;;;;;;49.80;23.20;;;;;;;;;;5026992;28;20244;-80
2022/12/19 10:25:01;;;;;;;51.23;26.07;;;;;;;;;;5029825;28;20659;-80
2022/12/19 10:27:30;;;;;;;47.83;24.40;;;;;;;;;;5032211;28;20222;-80
2022/12/19 10:30:02;;;;;;;48.57;23.97;;;;;;;;;;5027331;28;20198;-81
2022/12/19 10:32:32;;;;;;;44.87;22.83;;;;;;;;;;5032905;28;20223;-81
2022/12/19 10:35:00;;;;;;;48.60;23.80;;;;;;;;;;5033876;28;20639;-81
2022/12/19 10:37:28;;;;;;;46.60;23.40;;;;;;;;;;5017038;28;20246;-80
2022/12/19 10:40:02;;;;;;;51.07;24.20;;;;;;;;;;5025121;28;20226;-81
2022/12/19 10:42:33;;;;;;;51.13;24.33;;;;;;;;;;5016056;28;20226;-81
2022/12/19 10:45:03;;;;;;;53.13;24.10;;;;;;;;;;5024367;28;20666;-80
2022/12/19 10:47:31;;;;;;;48.00;24.83;;;;;;;;;;5013574;28;20235;-81
2022/12/19 10:49:58;;;;;;;55.20;25.47;;;;;;;;;;5023546;28;20207;-80
2022/12/19 10:52:46;;;;;;;51.77;25.00;;;;;;;;;;5025443;28;20706;-80
2022/12/19 10:55:23;;;;;;;46.47;23.60;;;;;;;;;;5019663;28;20190;-81
2022/12/19 10:57:50;;;;;;;50.53;24.30;;;;;;;;;;5012677;28;20238;-80
2022/12/19 11:00:18;;;;;;;51.00;24.43;;;;;;;;;;5030795;28;20226;-80
2022/12/19 11:02:46;;;;;;;54.87;23.30;;;;;;;;;;5014172;28;20219;-80
2022/12/19 11:05:22;;;;;;;48.67;23.90;;;;;;;;;;5012825;28;20214;-80
2022/12/19 11:07:59;;;;;;;55.63;24.83;;;;;;;;;;5013163;28;20254;-80
2022/12/19 11:10:36;;;;;;;54.70;24.17;;;;;;;;;;5012657;28;20241;-80
2022/12/19 11:13:06;;;;;;;54.63;24.90;;;;;;;;;;5013294;28;20195;-79
2022/12/19 11:15:33;;;;;;;48.53;23.97;;;;;;;;;;5012854;28;20242;-79
2022/12/19 11:18:07;;;;;;;52.83;26.43;;;;;;;;;;5011796;28;20249;-80
2022/12/19 11:20:34;;;;;;;54.77;25.23;;;;;;;;;;5011496;28;20266;-79
2022/12/19 11:23:01;;;;;;;56.07;26.93;;;;;;;;;;5011951;28;20211;-79
2022/12/19 11:25:33;;;;;;;59.30;26.97;;;;;;;;;;5022333;28;20245;-79
2022/12/19 11:28:04;;;;;;;51.93;26.80;;;;;;;;;;5028341;28;20253;-80
2022/12/19 11:30:31;;;;;;;49.17;24.90;;;;;;;;;;5012258;28;20257;-79
2022/12/19 11:33:08;;;;;;;52.37;25.93;;;;;;;;;;5011560;28;20686;-79
2022/12/19 11:35:45;;;;;;;50.43;25.33;;;;;;;;;;5011231;28;20234;-79
2022/12/19 11:38:14;;;;;;;61.33;26.77;;;;;;;;;;5011629;28;20227;-79
2022/12/19 11:40:44;;;;;;;51.13;26.60;;;;;;;;;;5011115;28;20593;-79
2022/12/19 11:43:16;;;;;;;57.57;26.83;;;;;;;;;;5014123;28;20226;-79
2022/12/19 11:45:49;;;;;;;55.93;26.40;;;;;;;;;;5023294;28;20605;-79
2022/12/19 11:48:17;;;;;;;56.87;25.90;;;;;;;;;;5029740;28;20218;-79
2022/12/19 11:50:50;;;;;;;52.60;24.93;;;;;;;;;;5025965;28;20254;-79
2022/12/19 11:53:20;;;;;;;59.20;28.57;;;;;;;;;;5011208;28;20656;-79
2022/12/19 11:55:51;;;;;;;56.57;26.43;;;;;;;;;;5010747;28;20719;-79
2022/12/19 11:58:19;;;;;;;55.80;26.73;;;;;;;;;;5010612;28;20228;-79
2022/12/19 12:00:48;;;;;;;56.70;27.53;;;;;;;;;;5010894;28;20235;-79
2022/12/19 12:03:33;;;;;;;65.00;28.20;;;;;;;;;;5013119;28;20211;-79
2022/12/19 12:06:01;;;;;;;64.37;29.27;;;;;;;;;;5017773;28;20317;-79
2022/12/19 12:08:45;;;;;;;53.63;26.47;;;;;;;;;;5012141;28;20220;-79
2022/12/19 12:11:21;;;;;;;57.17;25.80;;;;;;;;;;5011017;28;20235;-79
2022/12/19 12:13:58;;;;;;;56.90;25.93;;;;;;;;;;5011120;28;20195;-80
2022/12/19 12:16:29;;;;;;;55.93;27.80;;;;;;;;;;5010393;28;20245;-80
2022/12/19 12:19:03;;;;;;;64.50;28.37;;;;;;;;;;5011192;28;20574;-80
2022/12/19 12:21:35;;;;;;;59.17;28.87;;;;;;;;;;5010662;28;20239;-79
2022/12/19 12:24:09;;;;;;;56.63;28.70;;;;;;;;;;5011595;28;20214;-79
2022/12/19 12:26:37;;;;;;;55.70;28.73;;;;;;;;;;5010771;28;20687;-79
2022/12/19 12:29:10;;;;;;;61.00;31.13;;;;;;;;;;5011622;28;20208;-80
2022/12/19 12:31:49;;;;;;;57.40;29.43;;;;;;;;;;5010872;28;20235;-80
2022/12/19 12:34:24;;;;;;;73.67;31.73;;;;;;;;;;5011779;28;20203;-81
2022/12/19 12:36:54;;;;;;;62.33;29.93;;;;;;;;;;5011483;28;20261;-81
2022/12/19 12:39:26;;;;;;;60.23;28.33;;;;;;;;;;5012768;28;20230;-80
2022/12/19 12:42:05;;;;;;;63.20;27.87;;;;;;;;;;5012313;28;20262;-81
2022/12/19 12:44:35;;;;;;;63.10;29.43;;;;;;;;;;5012464;28;20242;-80
2022/12/19 12:47:05;;;;;;;64.97;28.83;;;;;;;;;;5012341;28;20250;-81
2022/12/19 12:49:36;;;;;;;70.30;29.53;;;;;;;;;;5011963;28;20196;-80
2022/12/19 12:52:05;;;;;;;51.70;27.13;;;;;;;;;;5011560;28;20254;-81
2022/12/19 12:54:34;;;;;;;62.47;26.90;;;;;;;;;;5012007;28;20595;-80
2022/12/19 12:57:02;;;;;;;66.43;30.17;;;;;;;;;;5021295;28;20242;-80
2022/12/19 12:59:32;;;;;;;66.80;29.73;;;;;;;;;;5020892;28;20200;-80
2022/12/19 13:02:01;;;;;;;70.50;29.87;;;;;;;;;;5011302;28;20235;-80
2022/12/19 13:04:31;;;;;;;71.80;30.00;;;;;;;;;;5011480;28;20211;-80
2022/12/19 13:07:03;;;;;;;63.90;30.50;;;;;;;;;;5027023;28;20241;-80
2022/12/19 13:09:32;;;;;;;72.67;30.70;;;;;;;;;;5031174;28;20207;-80
2022/12/19 13:14:48;;;;;;;73.20;28.87;;;;;;;;;;5035132;28;20777;-80
2022/12/19 13:17:20;;;;;;;57.07;28.20;;;;;;;;;;5033808;28;20241;-80
2022/12/19 13:19:54;;;;;;;55.70;28.87;;;;;;;;;;5034716;28;20210;-80
2022/12/19 13:22:36;;;;;;;63.37;29.10;;;;;;;;;;5034001;28;20234;-80
2022/12/19 13:25:27;;;;;;;56.93;28.77;;;;;;;;;;5030880;28;20211;-80
2022/12/19 13:27:56;;;;;;;66.67;30.77;;;;;;;;;;5034805;28;20223;-80
2022/12/19 13:30:24;;;;;;;57.20;29.20;;;;;;;;;;5034789;28;20234;-80
2022/12/19 13:33:08;;;;;;;58.13;28.63;;;;;;;;;;5054484;28;20202;-80
2022/12/19 13:35:36;;;;;;;59.70;28.63;;;;;;;;;;5053930;28;20246;-80
2022/12/19 13:38:06;;;;;;;58.87;29.13;;;;;;;;;;5053110;28;20312;-80
2022/12/19 13:40:34;;;;;;;55.27;28.57;;;;;;;;;;5049683;28;20234;-80
2022/12/19 13:45:58;;;;;;;56.27;27.17;;;;;;;;;;5028397;28;20716;-81
2022/12/19 13:48:29;;;;;;;57.63;29.10;;;;;;;;;;5054303;28;20713;-81
2022/12/19 13:50:57;;;;;;;64.90;28.30;;;;;;;;;;5047229;28;20230;-81
2022/12/19 13:53:26;;;;;;;59.43;26.47;;;;;;;;;;5034873;28;20211;-80
2022/12/19 13:55:55;;;;;;;61.67;27.77;;;;;;;;;;5036863;28;20926;-82
2022/12/19 13:58:25;;;;;;;55.17;28.00;;;;;;;;;;5044998;28;20283;-80
2022/12/19 14:00:52;;;;;;;50.47;24.03;;;;;;;;;;5053769;28;20233;-81
2022/12/19 14:03:22;;;;;;;52.87;24.57;;;;;;;;;;5068837;28;20224;-81
2022/12/19 14:05:50;;;;;;;54.80;25.30;;;;;;;;;;5065874;28;20895;-81
2022/12/19 14:08:20;;;;;;;50.97;24.73;;;;;;;;;;5053741;28;20237;-80
2022/12/19 14:10:49;;;;;;;51.53;25.53;;;;;;;;;;5059574;28;20653;-81
2022/12/19 14:16:06;;;;;;;55.77;27.83;;;;;;;;;;5030141;28;20233;-80
2022/12/19 14:18:34;;;;;;;47.63;23.93;;;;;;;;;;5053181;28;20221;-80
2022/12/19 14:21:13;;;;;;;47.27;23.23;;;;;;;;;;5060782;28;20693;-80
2022/12/19 14:23:41;;;;;;;43.40;21.97;;;;;;;;;;5073660;28;20820;-80
2022/12/19 14:26:10;;;;;;;49.33;21.33;;;;;;;;;;5063832;28;20890;-80
2022/12/19 14:28:41;;;;;;;50.87;23.40;;;;;;;;;;5053239;28;20202;-80
2022/12/19 14:31:12;;;;;;;47.20;21.17;;;;;;;;;;5062272;28;20226;-80
2022/12/19 14:33:42;;;;;;;47.60;22.90;;;;;;;;;;5070813;28;20205;-80
2022/12/19 14:36:10;;;;;;;44.43;20.83;;;;;;;;;;5043022;28;20400;-80
2022/12/19 14:38:38;;;;;;;40.77;19.97;;;;;;;;;;5012778;28;20214;-80
2022/12/19 14:43:37;;;;;;;43.07;21.03;;;;;;;;;;5038878;28;20726;-80